Plaistow, NH (03865)

11:45 AM EDT on April 28, 2015 (GMT -0400)
KNHPLAIS1 | | Change Station
CLOSE
Current Station
Personal Weather Station
Location: Plaistow, NH
Elevation: 200 ft
Nearby Weather Stations

Elev 200 ft 42.83 °N, 71.08 °W | Updated 44 minutes ago

Overcast
Overcast
52.5 °F
Feels Like 52.5 °F
N
1.0
Wind Variable Wind from West
Gusts 7.0 mph

Today
High -- | Low -- °F
--% Chance of Precip.
Yesterday
High -- | Low -- °F
Precip. -- in
5:43 AM 7:41 PM
Waxing Gibbous, 74% visible
Pressure 29.78 in
Visibility 10.0 miles
Clouds Few 5500 ft
Dew Point 35 °F
Humidity 52%
Rainfall 0.05 in
Snow Depth Not available.
UV 8 out of 12
Pollen 8.00 out of 12
Air Quality Not available.
Flu Activity Regional
METAR KLWM 281454Z 01017G22KT 10SM FEW055 11/M01 A2978 RMK AO2 SLP084 T01061006 51002

More Conditions Fewer Conditions

Pressure 29.78 in
Visibility 10.0 miles
Clouds Few 5500 ft
Dew Point 35 °F
Humidity 52%
Rainfall 0.05 in
Snow Depth Not available.
UV 8 out of 12
Pollen 8.00 out of 12
Air Quality Not available.
Flu Activity Regional
METAR KLWM 281454Z 01017G22KT 10SM FEW055 11/M01 A2978 RMK AO2 SLP084 T01061006 51002

More Conditions Fewer Conditions

10-Day Weather Forecast

Almanac

Astronomy

Apr. 28, 2015 Rise Set
Actual Time
Civil Twilight
Nautical Twilight
Astronomical Twilight
Moon
Length of Visible Light
Length of Day
Tomorrow will be .
, % of the Moon is Illuminated

Today's Extremes

State Highs State Lows

Community

WunderPhotos

Upload Photos

1,817,680 photos uploaded!

WunderBlogs® & News

Nearby

Air Quality

  Air Quality AQ Index Pollutant
Not available.

Snow Depth

Station Depth Elevation

Earthquake Activity

City Distance Mag. Time & Date
Minimum magnitude displayed is 2.5.

Coastal Water Temperatures

Place Temperature

Stations

Nearby Weather Stations

Station Location Temp. Windchill Dew Point Humidity Wind Precip. Elev Updated Type